Aérodrome :
LOGIN :

S'inscrire | Disclaimer

   EN    FR    IT 

 










Légende :    VFR   VFR Marginal   IFR   IFR Intensif   IFR Très Intensif
Visi : 
Plafond : 
>= 8 km
>= 3000ft
5 à 8 km
1000 à 3000 ft
1500m à 5 km
500 à 1000 ft
800 à 1500m
200 à 500 ft
< 800m
< 200 ft
Symboles :   Orages  Brouillard  Fortes neiges  Fortes précipitations  Vent > 20 kt
SIGMETs :   Divers  Orages  Givrage  Turbulence  Onde Orograph.  Cendres Volcan.







- Altitude de l'aérodrome : 327 ft
- Code IATA : BHX
- Voir les cartes d'approche


EGBB - Birmingham

DERNIER METAR :
  • 280650Z 02008KT 9999 -RA OVC005 14/13 Q0999

METARs EXPIRÉS :
  • 280620Z 02007KT 9000 -RA OVC005 14/14 Q0999
  • 280550Z 04006KT 360V080 9000 -RA OVC004 14/13 Q0999
  • 280520Z 04006KT 8000 -RA OVC004 14/13 Q0999
  • 280450Z 03005KT 8000 SCT004 OVC007 14/13 Q1000
  • 280420Z 02005KT 8000 SCT004 OVC007 13/13 Q1000

TAF TAF EGBB
Valide du 28 à 06h jusqu'au 29 à 06h UTC


280456Z 2806/2906 05007KT 9999 BKN007
TEMPO 2806/2814 4000 RA
PROB40
TEMPO 2806/2810 BKN004
BECMG 2811/2814 35011KT FEW008 BKN015
PROB30
TEMPO 2814/2906 6000 -RADZ BKN008
BECMG 2821/2824 29009KT BKN010
ATIS : +44 121 780 0910
Pas de NOTAMs connus pour ce terrain.
1 SIGMET publié pour la FIR London (EGTT) :
 
Orages noyés dans la masse
EGTT SIGMET 01 VALID 280600/280800 EGRR
EGTT LONDON FIR EMBD TS OBS WI N5255 E00110 - N5348 E00110 - N5349 E00356 - N5255 E00309 - N5255 E00110 TOP FL370 MOV NNW 15KT NC=



MET'MAP, la Météo Aéronautique d'un coup d'oeil ! - Copyright ORBIFLY Décembre 2007 - Disclaimer

ORBIFLY MET'MAP TEAM :

Programmation & Développement : Alexandra Zaïnal
Conception & Développement : Baudouin d'Aumeries
Co-Programmation & Développement : Marc-Olivier Méhu
Soutien technique & logistique : Manuel Goepfert

Contact : metmap@orbifly.com




SOURCES & CREDITS :

   NOAA